This is the latest recevied weather packets stored in our database for station/object W4MSI. If no packets are shown the sender has not sent any weather packets the latest 10 day(s).
| Time | Temp. | Humidity | Pressure | Rain* | Wind** | Luminosity | Snow |
|---|---|---|---|---|---|---|---|
| 1777756879 | 9.44° C | 90% | 1017.3 hPa | 4.83 mm | - | 56 W/m² | - |
| 1777756574 | 9.44° C | 89% | 1017.1 hPa | 4.32 mm | - | 28 W/m² | - |
| 1777756272 | 10° C | 88% | 1017.1 hPa | 4.83 mm | - | 28 W/m² | - |
| 1777755969 | 10° C | 88% | 1017.2 hPa | 3.05 mm | - | 29 W/m² | - |
| 1777755666 | 10.56° C | 86% | 1017.3 hPa | 3.05 mm | - | 21 W/m² | - |
| 1777755362 | 11.11° C | 82% | 1016.6 hPa | 4.83 mm | - | 28 W/m² | - |
| 1777755059 | 11.67° C | 79% | 1016.5 hPa | 4.83 mm | - | 27 W/m² | - |
| 1777754756 | 12.78° C | 72% | 1016.2 hPa | 0 mm | - | 38 W/m² | - |
| 1777754454 | 13.89° C | 65% | 1015.7 hPa | 0 mm | - | 26 W/m² | - |
| 1777754151 | 14.44° C | 59% | 1015.5 hPa | 0 mm | - | 27 W/m² | - |
| 1777753848 | 16.11° C | 52% | 1015.3 hPa | 0 mm | - | 40 W/m² | - |
| 1777753543 | 16.67° C | 43% | 1015.2 hPa | 0 mm | - | 131 W/m² | - |
| 1777753242 | 16.67° C | 43% | 1015.1 hPa | 0 mm | - | 202 W/m² | - |
| 1777752938 | 17.22° C | 41% | 1015.1 hPa | 0 mm | - | 367 W/m² | - |
| 1777752634 | 16.67° C | 44% | 1015.2 hPa | 0 mm | - | 768 W/m² | - |
| 1777752330 | 16.11° C | 44% | 1015.4 hPa | 0 mm | - | 669 W/m² | - |
| 1777752028 | 16.11° C | 46% | 1015.1 hPa | 0 mm | - | 824 W/m² | - |
| 1777751726 | 16.11° C | 48% | 1015.5 hPa | 0 mm | - | 427 W/m² | - |
| 1777751421 | 16.67° C | 46% | 1015.6 hPa | 0 mm | - | 224 W/m² | - |
| 1777751118 | 17.22° C | 44% | 1015.5 hPa | 0 mm | - | 234 W/m² | - |
| 1777750814 | 16.11° C | 45% | 1015.8 hPa | 0 mm | - | 812 W/m² | - |
| 1777750512 | 16.11° C | 46% | 1015.6 hPa | 0 mm | - | 429 W/m² | - |
| 1777750208 | 16.11° C | 47% | 1015.7 hPa | 0 mm | - | 137 W/m² | - |
| 1777749904 | 16.67° C | 46% | 1015.7 hPa | 0 mm | - | 89 W/m² | - |
| 1777749601 | 16.67° C | 40% | 1015.6 hPa | 0 mm | - | 344 W/m² | - |
* Rain latest hour (hover to see other rain measurements)
** Current wind speed in m/s (hover to see current wind gust speed)